• Join FlightAware (Why Join?)
  • Login
  • US Flag 
03:24PM EDT


 

Airport Tracker/Info


-or-


 

Live Flight TrackerFlight Track Log ✈ JTL556 ✈ 15-Jul-2014 ✈ KHOU - KIND

Flight Track Log - Related Links

Times and Time Zones

All times are in EDT time to prevent confusion due to time zone crossing. See the JTL556 flight status page for this flight to view local times or setup timezone preferences in your user account.

Time Position Orientation Groundspeed Altitude Reporting Facility
EDT Latitude Longitude Course Direction KTS MPH feet Rate Location/Type
02:00PM 29.6817 -95.2908 344° North 188 216 2,500  Level Houston Center
02:01PM 29.7339 -95.2792 11° North 213 245 5,700 3,420 Climbing Houston Center
02:02PM 29.7997 -95.2669 North 233 268 9,500 3,540 Climbing Houston Center
02:03PM 29.8742 -95.2531 North 264 304 13,100 2,580 Climbing Houston Center
02:05PM 30.0742 -95.2036 12° North 341 392 17,800 2,340 Climbing Fort Worth Center
02:06PM 30.1706 -95.1803 12° North 341 392 20,500 2,640 Climbing Houston Center
02:07PM 30.2675 -95.1553 13° North 354 407 23,100 2,460 Climbing Houston Center
02:08PM 30.3683 -95.1289 13° North 368 423 25,700 2,220 Climbing Houston Center
02:09PM 30.4706 -95.1039 12° North 384 442 27,800 2,100 Climbing Houston Center
02:10PM 30.6019 -95.0664 14° North 404 465 30,100 1,920 Climbing Houston Center
02:11PM 30.7036 -95.0000 29° Northeast 420 483 31,800 1,620 Climbing Houston Center
02:12PM 30.8075 -94.9353 28° Northeast 421 484 33,500 1,620 Climbing Houston Center
02:13PM 30.9119 -94.8675 29° Northeast 427 491 35,200 1,500 Climbing Houston Center
02:14PM 31.0139 -94.8000 30° Northeast 427 491 36,700 1,380 Climbing Houston Center
02:15PM 31.1075 -94.7186 37° Northeast 437 503 38,100 1,260 Climbing Houston Center
02:16PM 31.2197 -94.6183 37° Northeast 436 502 39,400 1,080 Climbing Houston Center
02:17PM 31.3142 -94.5333 38° Northeast 435 501 40,400 720 Climbing Houston Center
02:18PM 31.4083 -94.4481 38° Northeast 430 495 41,000 660 Climbing Houston Center
02:19PM 31.5050 -94.3581 38° Northeast 442 509 41,800 960 Climbing Houston Center
02:20PM 31.6192 -94.2514 38° Northeast 438 504 43,000 960 Climbing Houston Center
02:21PM 31.7156 -94.1653 37° Northeast 433 498 44,000 840 Climbing Fort Worth Center
02:23PM 31.8069 -94.0792 39° Northeast 427 491 44,900 480 Climbing Fort Worth Center
02:24PM 31.9147 -93.9769 39° Northeast 416 479 45,000  Climbing Fort Worth Center
02:25PM 32.0089 -93.8897 38° Northeast 424 488 45,000  Level Fort Worth Center
02:26PM 32.1036 -93.7986 39° Northeast 434 499 45,000  Level Fort Worth Center
02:27PM 32.1961 -93.7108 39° Northeast 437 503 45,000  Level Fort Worth Center
02:28PM 32.2936 -93.6183 39° Northeast 447 514 45,000  Level Fort Worth Center
02:29PM 32.4122 -93.5047 39° Northeast 455 524 45,000  Level Fort Worth Center
02:30PM 32.5144 -93.4078 39° Northeast 460 529 45,000  Level Fort Worth Center
02:31PM 32.6119 -93.3136 39° Northeast 461 531 45,000  Level Fort Worth Center
02:32PM 32.7114 -93.2183 39° Northeast 463 533 45,000  Level Fort Worth Center
02:33PM 32.8117 -93.1225 39° Northeast 463 533 45,000  Level Fort Worth Center
02:34PM 32.9336 -93.0050 39° Northeast 473 544 45,000  Level Fort Worth Center
02:35PM 33.0353 -92.9044 40° Northeast 473 544 45,000  Level Fort Worth Center
02:36PM 33.1378 -92.8061 39° Northeast 474 545 45,000  Level Fort Worth Center
02:37PM 33.2381 -92.7083 39° Northeast 472 543 45,000  Level Fort Worth Center
02:38PM 33.3400 -92.6092 39° Northeast 472 543 45,000  Level Fort Worth Center
02:39PM 33.4631 -92.4892 39° Northeast 473 544 45,000  Level Fort Worth Center
02:40PM 33.5650 -92.3892 39° Northeast 475 547 45,000  Level Fort Worth Center
02:41PM 33.6672 -92.2878 40° Northeast 475 547 45,000  Level Fort Worth Center
02:42PM 33.7700 -92.1878 39° Northeast 475 547 45,000  Level Memphis Center
02:43PM 33.8722 -92.0856 40° Northeast 476 548 45,000  Level Memphis Center
02:44PM 33.9758 -91.9831 39° Northeast 478 550 45,000  Level Memphis Center
02:45PM 34.0939 -91.8647 40° Northeast 481 554 45,000  Level Memphis Center
02:46PM 34.1961 -91.7619 40° Northeast 481 554 45,000  Level Memphis Center
02:47PM 34.2953 -91.6625 40° Northeast 481 554 45,000  Level Memphis Center
02:48PM 34.3992 -91.5567 40° Northeast 484 557 45,000  Level Memphis Center
02:49PM 34.5022 -91.4528 40° Northeast 484 557 45,000  Level Memphis Center
02:50PM 34.6258 -91.3256 40° Northeast 484 557 45,000  Level Memphis Center
02:51PM 34.7306 -91.2194 40° Northeast 485 558 45,000  Level Memphis Center
02:52PM 34.8339 -91.1144 40° Northeast 485 558 45,000  Level Memphis Center
02:53PM 34.9364 -91.0094 40° Northeast 485 558 45,000  Level Memphis Center
02:55PM 35.0378 -90.9042 40° Northeast 482 555 45,000  Level Memphis Center
02:56PM 35.1408 -90.8000 40° Northeast 481 554 45,000  Level Memphis Center
02:57PM 35.2422 -90.6928 41° Northeast 480 552 45,000  Level Memphis Center
02:58PM 35.3661 -90.5642 40° Northeast 482 555 45,000  Level Memphis Center
02:59PM 35.4694 -90.4558 40° Northeast 482 555 45,000  Level Memphis Center
03:00PM 35.5733 -90.3461 41° Northeast 486 559 45,000 -480 Level Memphis Center
03:01PM 35.6750 -90.2383 41° Northeast 486 559 44,100 -1,020 Descending Memphis Center
03:02PM 35.7864 -90.1197 41° Northeast 493 567 43,000 -1,020 Descending Memphis Center
03:03PM 35.8858 -90.0161 40° Northeast 475 547 42,000 -1,020 Descending Memphis Center
03:04PM 35.9872 -89.9072 41° Northeast 476 548 41,000 -540 Descending Memphis Center
03:05PM 36.0903 -89.7975 41° Northeast 485 558 41,000  Level Memphis Center
03:06PM 36.1958 -89.6847 41° Northeast 495 570 41,000  Level Memphis Center
03:07PM 36.3244 -89.5464 41° Northeast 502 578 41,000  Level Memphis Center
03:08PM 36.4122 -89.4542 40° Northeast 502 578 41,000  Level Memphis Center
03:09PM 36.5464 -89.3064 41° Northeast 510 587 41,000 -420 Level Memphis Center
03:10PM 36.6536 -89.1889 41° Northeast 511 588 40,200 -900 Descending Memphis Center
03:11PM 36.7631 -89.0697 41° Northeast 514 592 39,200 -600 Descending Memphis Center
03:12PM 36.8711 -88.9508 41° Northeast 520 598 39,000 -660 Descending Memphis Center
03:13PM 36.9758 -88.8344 42° Northeast 510 587 37,900 -1,380 Descending Memphis Center
03:14PM 37.0792 -88.7208 41° Northeast 501 577 36,200 -1,680 Descending Memphis Center
03:15PM 37.1750 -88.5872 48° Northeast 518 596 34,500 -1,320 Descending Memphis Center
03:16PM 37.2753 -88.4089 55° Northeast 524 603 33,500 -1,020 Descending Memphis Center
03:17PM 37.3764 -88.2778 46° Northeast 527 606 32,500 -960 Descending Memphis Center
03:18PM 37.4903 -88.1742 36° Northeast 513 590 31,600 -780 Descending Memphis Center
03:19PM 37.6036 -88.0675 37° Northeast 511 588 31,000 -300 Descending Memphis Center
03:20PM 37.7233 -87.9736 32° Northeast 509 586 31,000  Level Memphis Center
03:21PM 37.8625 -87.8706 30° Northeast 511 588 31,000  Level Memphis Center
03:22PM 37.9881 -87.7739 31° Northeast 518 596 31,000 -360 Level Memphis Center
03:24PM 38.1108 -87.6800 31° Northeast 518 596 30,300 -1,020 Descending Indianapolis Center
03:25PM 38.2533 -87.5697 31° Northeast 499 574 28,900 -1,620 Descending Indianapolis Center
03:26PM 38.3700 -87.4789 31° Northeast 490 564 27,100 -1,800 Descending Indianapolis Center
03:27PM 38.4861 -87.3900 31° Northeast 483 556 25,300 -1,800 Descending Indianapolis Center
03:28PM 38.5997 -87.2997 32° Northeast 477 549 23,500 -1,800 Descending Indianapolis Center
03:29PM 38.7114 -87.2131 31° Northeast 469 540 21,700 -1,800 Descending Indianapolis Center
03:30PM 38.8181 -87.1286 32° Northeast 453 521 19,800 -2,100 Descending Indianapolis Center
03:31PM 38.9222 -87.0464 32° Northeast 441 507 17,500 -2,220 Descending Indianapolis Center
03:32PM 39.0233 -86.9658 32° Northeast 430 495 15,300 -2,160 Descending Indianapolis Center
03:33PM 39.1192 -86.8908 31° Northeast 409 471 13,100 -2,040 Descending Indianapolis Center
03:34PM 39.2181 -86.8186 29° Northeast 380 437 11,100 -1,080 Descending Indianapolis Center
03:35PM 39.3003 -86.7558 31° Northeast 348 400 11,000 -60 Descending Indianapolis Center
03:36PM 39.3864 -86.6914 30° Northeast 353 406 11,000  Level Indianapolis Center
03:37PM 39.4736 -86.6261 30° Northeast 358 412 11,000 -540 Level Indianapolis Center
03:38PM 39.5564 -86.5631 30° Northeast 348 400 10,000 -1,020 Descending Indianapolis Center
03:39PM 39.6269 -86.5100 30° Northeast 301 346 9,000 -1,140 Descending Indianapolis Center
03:40PM 39.7056 -86.4494 31° Northeast 277 319 7,700 -1,080 Descending Indianapolis Center
03:41PM 39.7569 -86.3908 41° Northeast 246 283 6,800 -1,260 Descending Indianapolis Center
03:42PM 39.8019 -86.3322 45° Northeast 229 264 5,200 -1,500 Descending Indianapolis Center
03:43PM 39.8350 -86.2658 57° Northeast 228 262 3,800 -1,080 Descending Indianapolis Center
03:44PM 39.8022 -86.2150 130° Southeast 190 219 3,000 -780 Descending Indianapolis Center
03:45PM 39.7714 -86.2364 208° Southwest 151 174 2,200 -840 Descending Indianapolis Center
03:46PM 39.7464 -86.2703 226° Southwest 136 157 1,300 -720 Descending Indianapolis Center
03:47PM 39.7194 -86.3058 225° Southwest 128 147 800 -540 Descending Indianapolis Center
03:49PM 39.7173 -86.2947 207° Southwest  Level Estimated